Time;durP1;ratioP1;P1;durP2;ratioP2;P2;SDS_P1;SDS_P2;PMS_P1;PMS_P2;Temp;Humidity;BMP_temperature;BMP_pressure;BME280_temperature;BME280_humidity;BME280_pressure;Samples;Min_cycle;Max_cycle;Signal;HPM_P1;HPM_P2
2022/06/19 00:00:37;;;;;;;9.13;6.90;;;;;;;15.27;63.51;98938.45;1472860;79;21661;-69
2022/06/19 00:02:41;;;;;;;19.10;7.20;;;;;;;15.21;63.50;98935.36;1472747;79;21066;-69
2022/06/19 00:04:44;;;;;;;10.78;7.10;;;;;;;15.22;63.55;98944.55;1471038;79;81656;-70
2022/06/19 00:06:45;;;;;;;15.78;7.40;;;;;;;15.21;63.60;98936.69;1469188;79;21043;-70
2022/06/19 00:08:48;;;;;;;9.33;7.75;;;;;;;15.17;63.67;98937.85;1462006;79;21360;-70
2022/06/19 00:10:50;;;;;;;15.60;7.17;;;;;;;15.14;63.78;98941.06;1460563;79;81094;-70
2022/06/19 00:12:51;;;;;;;12.28;6.95;;;;;;;15.12;63.83;98943.48;1477472;79;21487;-69
2022/06/19 00:14:51;;;;;;;;;;;;;;;15.12;63.88;98944.81;1480180;79;21153;-69
2022/06/19 00:16:53;;;;;;;12.30;6.90;;;;;;;15.09;64.19;98941.87;1476621;79;66899;-69
2022/06/19 00:18:53;;;;;;;;;;;;;;;15.09;64.07;98942.34;1481069;79;21479;-70
2022/06/19 00:20:54;;;;;;;15.93;6.65;;;;;;;15.08;64.33;98946.81;1477768;79;20205;-69
2022/06/19 00:22:55;;;;;;;17.48;7.05;;;;;;;15.07;64.21;98950.89;1474766;79;81556;-70
2022/06/19 00:24:56;;;;;;;;;;;;;;;15.04;64.24;98940.49;1479840;79;21012;-69
2022/06/19 00:26:58;;;;;;;6.75;6.17;;;;;;;15.00;64.54;98939.83;1476724;79;20221;-70
2022/06/19 00:28:59;;;;;;;14.28;7.45;;;;;;;14.96;64.46;98937.02;1476504;79;81168;-70
2022/06/19 00:31:00;;;;;;;17.00;7.00;;;;;;;14.94;64.41;98937.61;1476851;79;21020;-69
2022/06/19 00:33:01;;;;;;;;;;;;;;;14.92;64.47;98940.82;1481122;79;21090;-69
2022/06/19 00:35:03;;;;;;;10.48;7.35;;;;;;;14.91;64.76;98935.13;1475648;79;66828;-70
2022/06/19 00:37:05;;;;;;;15.93;7.87;;;;;;;14.88;64.64;98941.98;1477135;80;20999;-69
2022/06/19 00:39:06;;;;;;;12.00;6.80;;;;;;;14.86;64.62;98935.94;1477090;79;21033;-70
2022/06/19 00:41:07;;;;;;;;;;;;;;;14.81;64.65;98941.08;1479842;78;80597;-69
2022/06/19 00:43:08;;;;;;;11.25;7.05;;;;;;;14.80;65.00;98930.08;1478233;79;20136;-69
2022/06/19 00:45:29;;;;;;;;;;;;;;;14.77;64.84;98928.97;1479788;79;21015;-70
2022/06/19 00:47:38;;;;;;;7.92;6.97;;;;;;;14.76;65.06;98929.91;1461413;80;20456;-70
2022/06/19 00:49:41;;;;;;;14.00;7.30;;;;;;;14.74;64.96;98926.48;1477558;79;20999;-70
2022/06/19 00:51:43;;;;;;;12.28;7.33;;;;;;;14.71;64.96;98930.68;1476787;80;80788;-70
2022/06/19 00:53:47;;;;;;;13.48;7.67;;;;;;;14.68;65.03;98932.22;1421251;82;21072;-71
2022/06/19 00:55:51;;;;;;;7.65;6.92;;;;;;;14.65;65.08;98929.77;1463009;79;20989;-70
2022/06/19 00:57:58;;;;;;;10.43;7.60;;;;;;;14.61;65.17;98925.09;1461413;79;80415;-70
2022/06/19 01:00:03;;;;;;;14.20;7.80;;;;;;;14.57;65.21;98926.73;1462590;79;21002;-70
2022/06/19 01:02:06;;;;;;;11.18;7.33;;;;;;;14.51;65.32;98921.82;1462448;80;21532;-70
2022/06/19 01:04:15;;;;;;;10.10;7.53;;;;;;;14.48;65.38;98918.89;1461572;79;82131;-70
2022/06/19 01:06:17;;;;;;;14.45;7.87;;;;;;;14.45;65.44;98918.64;1461254;79;21015;-70
2022/06/19 01:08:19;;;;;;;11.65;7.47;;;;;;;14.42;65.49;98916.16;1476091;79;21661;-70
2022/06/19 01:10:20;;;;;;;8.65;7.28;;;;;;;14.42;65.55;98916.16;1455574;80;82075;-70
2022/06/19 01:12:23;;;;;;;11.03;7.90;;;;;;;14.42;65.61;98920.14;1453725;80;22231;-70
2022/06/19 01:14:26;;;;;;;13.18;7.67;;;;;;;14.40;65.62;98917.20;1430196;81;21583;-70
2022/06/19 01:16:28;;;;;;;9.45;7.25;;;;;;;14.39;65.66;98916.38;1449659;82;81759;-70
2022/06/19 01:18:31;;;;;;;10.55;7.58;;;;;;;14.38;65.71;98908.03;1450938;80;20982;-70
2022/06/19 01:20:34;;;;;;;21.33;8.93;;;;;;;14.37;65.78;98903.70;1449551;80;21046;-70
2022/06/19 01:23:05;;;;;;;14.60;7.17;;;;;;;14.35;65.79;98906.08;1448912;80;81918;-69
2022/06/19 01:25:16;;;;;;;11.50;7.28;;;;;;;14.32;65.85;98900.49;1386695;84;21041;-69
2022/06/19 01:29:37;;;;;;;10.55;8.60;;;;;;;14.18;66.00;98893.44;1388299;83;21027;-70
2022/06/19 01:31:50;;;;;;;14.28;7.80;;;;;;;14.12;66.10;98894.68;1411331;83;21012;-70
2022/06/19 01:33:57;;;;;;;11.65;7.83;;;;;;;14.09;66.22;98893.53;1403585;83;80746;-70
2022/06/19 01:36:00;;;;;;;11.65;8.40;;;;;;;14.07;66.26;98884.00;1404007;83;21116;-70
2022/06/19 01:38:04;;;;;;;20.80;8.53;;;;;;;14.08;66.31;98890.53;1406676;83;21105;-70
2022/06/19 01:40:15;;;;;;;11.33;7.62;;;;;;;14.08;66.38;98890.53;1401263;83;81713;-70
2022/06/19 01:42:17;;;;;;;13.80;7.58;;;;;;;14.07;66.42;98889.30;1428939;82;21117;-69
2022/06/19 01:44:18;;;;;;;10.65;8.03;;;;;;;14.07;66.42;98886.66;1429353;82;21018;-70
2022/06/19 01:46:19;;;;;;;13.83;8.05;;;;;;;14.03;66.52;98879.84;1430627;82;80720;-69
2022/06/19 01:48:22;;;;;;;17.67;8.73;;;;;;;14.10;66.62;98887.77;1428495;81;21548;-70
2022/06/19 01:50:27;;;;;;;11.60;8.10;;;;;;;14.09;66.57;98880.27;1408090;83;21083;-70
2022/06/19 01:52:30;;;;;;;18.85;7.87;;;;;;;14.07;66.61;98882.19;1404085;82;81883;-70
2022/06/19 01:54:35;;;;;;;14.68;7.67;;;;;;;14.08;66.70;98890.98;1403980;83;20991;-70
2022/06/19 01:56:36;;;;;;;14.18;8.25;;;;;;;14.09;66.83;98883.41;1405082;83;21083;-70
2022/06/19 01:58:46;;;;;;;11.95;7.92;;;;;;;14.10;66.92;98887.28;1385699;84;80698;-70
2022/06/19 02:00:49;;;;;;;15.58;7.85;;;;;;;14.12;66.93;98877.91;1385910;84;21041;-70
2022/06/19 02:02:56;;;;;;;9.78;8.23;;;;;;;14.13;67.00;98884.92;1450324;81;21224;-70
2022/06/19 02:04:57;;;;;;;11.20;8.00;;;;;;;14.17;67.08;98889.07;1428628;80;80821;-69
2022/06/19 02:07:02;;;;;;;17.12;7.62;;;;;;;14.20;67.10;98888.03;1430504;81;21124;-70
2022/06/19 02:09:05;;;;;;;15.75;7.22;;;;;;;14.22;67.14;98882.14;1440672;81;21084;-70
2022/06/19 02:11:08;;;;;;;13.83;7.95;;;;;;;14.24;67.18;98877.60;1440589;81;81362;-70
2022/06/19 02:13:12;;;;;;;8.63;7.65;;;;;;;14.27;67.18;98868.12;1453637;80;21071;-70
2022/06/19 02:15:14;;;;;;;10.50;7.70;;;;;;;14.25;67.16;98869.55;1449920;80;81390;-70
2022/06/19 02:17:18;;;;;;;10.50;7.17;;;;;;;14.25;67.06;98871.36;1452656;80;21021;-70
2022/06/19 02:19:20;;;;;;;18.90;8.25;;;;;;;14.24;67.06;98869.16;1452369;80;21048;-70
2022/06/19 02:21:24;;;;;;;7.47;6.80;;;;;;;14.16;67.06;98862.18;1436823;81;82109;-70
2022/06/19 02:23:32;;;;;;;12.53;7.22;;;;;;;14.17;67.09;98863.89;1431803;81;22260;-70
2022/06/19 02:25:35;;;;;;;15.63;7.33;;;;;;;14.13;67.12;98862.39;1439833;81;20959;-70
2022/06/19 02:27:38;;;;;;;12.28;6.97;;;;;;;14.12;67.17;98857.58;1440796;81;81469;-69
2022/06/19 02:29:41;;;;;;;7.90;6.80;;;;;;;14.13;67.30;98862.39;1420958;82;21031;-70
2022/06/19 02:31:44;;;;;;;17.98;7.80;;;;;;;14.16;67.35;98860.02;1416066;83;21429;-70
2022/06/19 02:33:50;;;;;;;11.18;6.87;;;;;;;14.16;67.34;98856.88;1416057;82;82105;-70
2022/06/19 02:35:51;;;;;;;16.62;6.72;;;;;;;14.14;67.35;98855.66;1414972;83;21040;-69
2022/06/19 02:37:53;;;;;;;;;;;;;;;14.17;67.36;98856.43;1418455;82;21048;-70
2022/06/19 02:40:16;;;;;;;12.75;6.78;;;;;;;14.17;67.60;98856.43;1438567;81;67045;-69
2022/06/19 02:42:23;;;;;;;11.70;6.53;;;;;;;14.16;67.52;98859.53;1452081;80;21012;-70
2022/06/19 02:44:31;;;;;;;11.83;6.08;;;;;;;14.14;67.55;98855.66;1453323;80;21072;-70
2022/06/19 02:46:32;;;;;;;11.75;6.65;;;;;;;14.17;67.53;98863.05;1447534;80;81666;-69
2022/06/19 02:48:34;;;;;;;20.12;7.28;;;;;;;14.15;67.51;98864.48;1453369;80;21036;-69
2022/06/19 02:50:35;;;;;;;11.15;6.95;;;;;;;14.14;67.56;98872.89;1452602;80;21015;-70
2022/06/19 02:52:36;;;;;;;7.45;6.72;;;;;;;13.96;67.62;98837.83;1453567;80;80755;-70
2022/06/19 02:54:37;;;;;;;8.00;5.92;;;;;;;14.17;67.62;98865.70;1440800;81;20946;-70
2022/06/19 02:56:39;;;;;;;9.83;6.53;;;;;;;14.19;67.62;98869.09;1440923;81;21038;-70
2022/06/19 02:58:41;;;;;;;9.80;6.60;;;;;;;14.14;67.59;98875.54;1441468;81;81667;-70
2022/06/19 03:00:42;;;;;;;;;;;;;;;14.10;67.64;98871.39;1441896;81;21591;-70
2022/06/19 03:02:44;;;;;;;8.45;6.30;;;;;;;14.08;67.84;98870.65;1442016;81;20162;-70
2022/06/19 03:04:51;;;;;;;9.88;6.47;;;;;;;14.07;67.78;98871.59;1438696;81;81255;-70
2022/06/19 03:06:52;;;;;;;7.50;6.12;;;;;;;14.07;67.77;98870.27;1453729;80;21025;-70
2022/06/19 03:08:54;;;;;;;11.78;6.55;;;;;;;14.05;67.81;98874.83;1433416;81;21059;-70
2022/06/19 03:10:55;;;;;;;;;;;;;;;14.05;67.85;98877.48;1455389;80;80823;-69
2022/06/19 03:12:56;;;;;;;10.90;6.03;;;;;;;14.05;68.09;98875.28;1434093;81;20116;-69
2022/06/19 03:14:59;;;;;;;12.93;6.33;;;;;;;14.05;68.01;98878.80;1457268;80;21476;-70
2022/06/19 03:17:00;;;;;;;9.40;6.10;;;;;;;14.06;68.01;98877.83;1456858;80;81571;-70
2022/06/19 03:19:02;;;;;;;13.20;6.12;;;;;;;14.07;68.09;98876.89;1456861;81;21297;-71
2022/06/19 03:21:03;;;;;;;12.47;5.70;;;;;;;14.09;68.12;98876.79;1458533;80;21087;-71
2022/06/19 03:23:04;;;;;;;7.62;6.35;;;;;;;14.11;68.17;98881.05;1456132;80;80593;-71
2022/06/19 03:25:05;;;;;;;14.60;6.40;;;;;;;14.17;68.23;98877.62;1458080;81;21480;-71
2022/06/19 03:27:07;;;;;;;12.33;6.03;;;;;;;14.19;68.26;98875.72;1455978;80;21004;-70
2022/06/19 03:29:09;;;;;;;13.70;5.90;;;;;;;14.19;68.25;98867.31;1430567;81;81708;-70
2022/06/19 03:31:17;;;;;;;6.83;5.70;;;;;;;14.19;68.32;98869.09;1481111;79;21025;-69
2022/06/19 03:33:18;;;;;;;12.23;6.62;;;;;;;14.20;68.35;98874.29;1478322;79;81609;-69
2022/06/19 03:35:19;;;;;;;9.80;5.85;;;;;;;14.23;68.45;98873.24;1479242;79;21084;-70
2022/06/19 03:37:20;;;;;;;12.75;6.40;;;;;;;14.25;68.48;98874.84;1480560;80;20975;-69
2022/06/19 03:39:20;;;;;;;;;;;;;;;14.28;68.52;98878.62;1482423;79;81410;-70
2022/06/19 03:41:21;;;;;;;7.08;5.62;;;;;;;14.30;68.77;98876.73;1479724;79;20163;-69
2022/06/19 03:43:22;;;;;;;;;;;;;;;14.34;68.62;98877.36;1483045;80;21038;-69
2022/06/19 03:45:23;;;;;;;12.68;6.70;;;;;;;14.38;68.86;98874.05;1478383;79;68239;-69
2022/06/19 03:47:26;;;;;;;8.85;5.62;;;;;;;14.41;68.71;98869.41;1479730;79;21518;-69
2022/06/19 03:49:27;;;;;;;12.85;5.60;;;;;;;14.45;68.71;98862.95;1478908;79;21536;-70
2022/06/19 03:51:29;;;;;;;17.15;6.20;;;;;;;14.52;68.71;98869.16;1478295;79;81710;-70
2022/06/19 03:53:30;;;;;;;10.85;6.47;;;;;;;14.54;68.73;98858.83;1479370;79;21054;-71
2022/06/19 03:55:30;;;;;;;8.88;6.67;;;;;;;14.58;68.80;98864.76;1480391;79;21141;-71
2022/06/19 03:57:31;;;;;;;;;;;;;;;14.62;68.82;98861.86;1439342;80;81342;-70
2022/06/19 03:59:32;;;;;;;10.48;6.15;;;;;;;14.65;69.00;98862.12;1456659;80;20164;-70
2022/06/19 04:01:35;;;;;;;;;;;;;;;14.69;68.93;98860.97;1461336;80;20958;-70
2022/06/19 04:03:35;;;;;;;11.40;5.55;;;;;;;14.74;69.10;98865.95;1455403;80;66855;-70
2022/06/19 04:05:37;;;;;;;10.75;5.95;;;;;;;14.79;69.02;98868.67;1458927;80;21050;-70
2022/06/19 04:07:45;;;;;;;;;;;;;;;14.85;69.05;98860.77;1456544;80;21658;-71
2022/06/19 04:09:47;;;;;;;19.55;6.20;;;;;;;14.91;69.19;98863.48;1450085;80;67118;-70
2022/06/19 04:11:48;;;;;;;13.45;6.40;;;;;;;14.97;69.17;98861.75;1460330;80;21522;-70
2022/06/19 04:13:54;;;;;;;13.75;6.53;;;;;;;15.02;69.19;98860.10;1455102;80;21059;-70
2022/06/19 04:15:55;;;;;;;7.37;6.20;;;;;;;15.09;69.18;98858.26;1453085;80;81729;-69
2022/06/19 04:17:56;;;;;;;13.50;6.00;;;;;;;15.18;69.17;98861.23;1452526;80;21027;-69
2022/06/19 04:19:57;;;;;;;15.08;6.42;;;;;;;15.27;69.20;98864.56;1452302;80;21043;-69
2022/06/19 04:21:59;;;;;;;8.13;6.03;;;;;;;15.29;69.21;98856.02;1451009;80;81665;-70
2022/06/19 04:24:05;;;;;;;16.73;6.22;;;;;;;15.41;69.25;98861.81;1452610;80;21534;-69
2022/06/19 04:26:09;;;;;;;22.20;5.97;;;;;;;15.50;69.23;98864.28;1451849;80;20996;-70
2022/06/19 04:28:10;;;;;;;8.35;5.72;;;;;;;15.58;69.14;98863.27;1450831;80;80746;-71
2022/06/19 04:30:13;;;;;;;12.43;6.15;;;;;;;15.67;69.14;98855.11;1452489;80;21002;-71
2022/06/19 04:32:14;;;;;;;9.20;6.37;;;;;;;15.75;69.11;98855.91;1451186;80;21007;-70
2022/06/19 04:34:15;;;;;;;7.75;5.80;;;;;;;15.83;69.05;98858.41;1450512;80;81466;-70
2022/06/19 04:36:17;;;;;;;;;;;;;;;15.92;69.01;98863.56;1455194;80;21997;-70
2022/06/19 04:38:18;;;;;;;6.03;5.17;;;;;;;16.00;69.01;98857.67;1451294;80;20193;-70
2022/06/19 04:40:18;;;;;;;;;;;;;;;16.10;68.78;98860.50;1453791;80;80704;-70
2022/06/19 04:42:19;;;;;;;5.55;4.90;;;;;;;16.19;68.84;98860.34;1452952;80;20157;-70
2022/06/19 04:44:21;;;;;;;;;;;;;;;16.27;68.83;98859.26;1453388;80;21026;-70
2022/06/19 04:46:23;;;;;;;6.35;5.85;;;;;;;16.35;68.81;98856.88;1450232;80;67214;-70
2022/06/19 04:48:25;;;;;;;6.90;6.05;;;;;;;16.40;68.65;98838.78;1452332;80;21031;-70
2022/06/19 04:50:26;;;;;;;5.95;5.33;;;;;;;16.55;68.54;98849.25;1433290;81;21019;-70
2022/06/19 04:52:27;;;;;;;;;;;;;;;16.65;68.41;98840.93;1456441;80;81748;-70
2022/06/19 04:54:28;;;;;;;10.68;5.08;;;;;;;16.74;68.43;98836.72;1452085;80;20150;-71
2022/06/19 04:56:29;;;;;;;9.05;5.25;;;;;;;16.82;68.18;98848.49;1451284;80;21039;-71
2022/06/19 04:58:30;;;;;;;12.47;5.42;;;;;;;16.90;68.11;98845.27;1450303;80;81621;-70
2022/06/19 05:00:31;;;;;;;6.00;5.10;;;;;;;16.99;67.98;98848.55;1451162;80;21004;-70
2022/06/19 05:02:33;;;;;;;6.97;5.60;;;;;;;17.08;67.89;98841.66;1450859;80;21153;-70
2022/06/19 05:04:33;;;;;;;9.25;4.87;;;;;;;17.17;67.78;98843.63;1450403;80;81685;-70
2022/06/19 05:06:35;;;;;;;5.90;4.92;;;;;;;17.26;67.71;98846.53;1453470;80;21199;-70
2022/06/19 05:08:36;;;;;;;5.15;4.65;;;;;;;17.35;67.67;98840.50;1467621;79;21048;-70
2022/06/19 05:10:37;;;;;;;5.35;4.85;;;;;;;17.46;67.51;98839.16;1478042;79;81462;-70
2022/06/19 05:12:39;;;;;;;5.75;4.67;;;;;;;17.55;67.48;98833.58;1479700;79;20999;-69
2022/06/19 05:14:40;;;;;;;6.97;4.62;;;;;;;17.65;67.34;98841.22;1479942;79;21692;-71
2022/06/19 05:16:41;;;;;;;10.10;4.97;;;;;;;17.73;67.20;98833.92;1479274;79;81472;-71
2022/06/19 05:18:43;;;;;;;7.28;4.95;;;;;;;17.82;67.11;98834.99;1480395;79;21584;-71
2022/06/19 05:20:44;;;;;;;8.20;5.03;;;;;;;17.91;67.07;98830.75;1480262;79;21035;-71
2022/06/19 05:22:45;;;;;;;6.75;5.67;;;;;;;18.00;67.00;98834.05;1478030;79;81672;-70
2022/06/19 05:24:46;;;;;;;7.53;5.12;;;;;;;18.09;66.98;98827.95;1479268;79;21022;-70
2022/06/19 05:26:47;;;;;;;7.97;4.67;;;;;;;18.19;66.97;98828.03;1479880;79;21420;-71
2022/06/19 05:28:50;;;;;;;6.65;5.25;;;;;;;18.28;66.87;98830.45;1479988;79;80730;-70
2022/06/19 05:30:51;;;;;;;7.78;4.58;;;;;;;18.36;66.78;98828.00;1477521;79;21492;-71
2022/06/19 05:32:52;;;;;;;5.15;4.65;;;;;;;18.46;66.72;98823.58;1481219;79;20967;-71
2022/06/19 05:34:53;;;;;;;5.45;4.30;;;;;;;18.56;66.55;98823.65;1479711;79;80606;-70
2022/06/19 05:36:54;;;;;;;6.72;4.62;;;;;;;18.67;66.42;98830.26;1480730;79;21372;-71
2022/06/19 05:38:57;;;;;;;5.42;4.45;;;;;;;18.76;66.34;98824.66;1481644;79;21027;-71
2022/06/19 05:41:00;;;;;;;6.87;4.67;;;;;;;18.86;66.45;98821.55;1478977;79;80396;-71
2022/06/19 05:43:01;;;;;;;6.83;4.17;;;;;;;18.94;66.37;98812.92;1479295;79;21668;-71
2022/06/19 05:45:02;;;;;;;6.25;4.40;;;;;;;19.02;66.41;98808.23;1479220;79;21047;-71
2022/06/19 05:47:03;;;;;;;7.70;4.03;;;;;;;19.08;66.27;98811.73;1479737;80;81273;-70
2022/06/19 05:49:04;;;;;;;8.98;4.45;;;;;;;19.17;66.23;98814.09;1432191;81;20996;-71
2022/06/19 05:51:09;;;;;;;4.10;3.77;;;;;;;19.26;66.13;98813.30;1454736;80;21028;-70
2022/06/19 05:53:10;;;;;;;15.38;4.40;;;;;;;19.35;66.02;98815.15;1454581;81;80929;-70
2022/06/19 05:55:12;;;;;;;5.15;3.87;;;;;;;19.42;65.93;98810.12;1454322;80;21070;-70
2022/06/19 05:57:13;;;;;;;9.40;4.12;;;;;;;19.52;65.89;98809.68;1453419;80;81747;-70
2022/06/19 05:59:14;;;;;;;5.12;4.10;;;;;;;19.61;65.86;98807.17;1433561;81;20987;-71
2022/06/19 06:01:17;;;;;;;6.60;4.10;;;;;;;19.70;65.75;98800.98;1454860;80;21473;-71
2022/06/19 06:03:20;;;;;;;7.33;4.03;;;;;;;19.79;65.61;98799.34;1480446;79;80809;-70
2022/06/19 06:05:21;;;;;;;5.05;3.58;;;;;;;19.90;65.61;98792.56;1481263;79;21036;-70
2022/06/19 06:07:22;;;;;;;6.75;3.67;;;;;;;20.02;65.54;98790.59;1480430;79;21027;-70
2022/06/19 06:09:23;;;;;;;6.55;3.20;;;;;;;20.14;65.44;98806.04;1479181;79;81225;-70
2022/06/19 06:11:24;;;;;;;3.37;2.80;;;;;;;20.25;65.22;98802.72;1480778;79;21077;-71
2022/06/19 06:13:25;;;;;;;10.08;3.50;;;;;;;20.37;64.78;98799.94;1479563;79;21030;-71
2022/06/19 06:15:27;;;;;;;6.08;3.08;;;;;;;20.51;64.63;98798.16;1478482;79;81667;-70
2022/06/19 06:17:28;;;;;;;6.95;2.70;;;;;;;20.68;64.43;98798.45;1480363;79;21011;-70
2022/06/19 06:19:29;;;;;;;5.85;2.90;;;;;;;20.76;64.27;98789.21;1479613;79;20984;-71
2022/06/19 06:21:30;;;;;;;7.67;2.90;;;;;;;20.85;64.03;98784.34;1480326;79;81518;-70
2022/06/19 06:23:32;;;;;;;4.20;2.85;;;;;;;20.93;63.92;98784.93;1478714;79;21621;-70
2022/06/19 06:25:34;;;;;;;7.85;3.00;;;;;;;21.03;63.77;98784.42;1482200;79;21011;-70
2022/06/19 06:27:35;;;;;;;6.70;2.77;;;;;;;21.17;63.51;98784.45;1478685;79;80819;-70
2022/06/19 06:29:36;;;;;;;8.03;2.65;;;;;;;21.33;63.30;98782.98;1480209;79;20989;-70
2022/06/19 06:31:37;;;;;;;6.37;2.67;;;;;;;21.43;63.15;98783.77;1479921;79;21075;-70
2022/06/19 06:33:39;;;;;;;2.72;2.50;;;;;;;21.54;62.89;98785.45;1476190;79;80582;-70
2022/06/19 06:35:40;;;;;;;2.95;2.58;;;;;;;21.66;62.80;98780.73;1479157;79;21034;-70
2022/06/19 06:37:41;;;;;;;3.70;2.55;;;;;;;21.74;62.67;98778.14;1481346;79;21221;-71
2022/06/19 06:39:41;;;;;;;4.92;3.05;;;;;;;21.84;62.68;98774.06;1476145;79;81343;-71
2022/06/19 06:41:42;;;;;;;3.62;2.50;;;;;;;21.90;62.43;98764.91;1479711;79;21044;-70
2022/06/19 06:43:45;;;;;;;11.28;2.45;;;;;;;21.98;62.32;98764.64;1479532;79;21198;-71
2022/06/19 06:45:48;;;;;;;4.42;2.27;;;;;;;22.05;62.29;98765.20;1477579;79;80850;-71
2022/06/19 06:47:52;;;;;;;6.08;2.27;;;;;;;22.14;62.18;98763.47;1479456;79;21088;-71
2022/06/19 06:49:53;;;;;;;4.15;2.22;;;;;;;22.24;62.10;98765.55;1478281;79;21007;-69
2022/06/19 06:51:54;;;;;;;4.03;2.70;;;;;;;22.35;61.85;98760.48;1479378;79;81763;-71
2022/06/19 06:53:57;;;;;;;8.40;2.58;;;;;;;22.49;61.58;98764.97;1463117;80;21494;-71
2022/06/19 06:55:58;;;;;;;6.45;2.12;;;;;;;22.54;61.27;98758.13;1432656;81;20988;-71
2022/06/19 06:57:59;;;;;;;5.92;2.08;;;;;;;22.64;61.29;98757.17;1432181;81;81416;-71
2022/06/19 07:00:00;;;;;;;2.10;1.98;;;;;;;22.71;61.15;98748.84;1432324;81;20987;-70
2022/06/19 07:02:01;;;;;;;4.33;2.65;;;;;;;22.83;60.90;98742.69;1432499;82;21071;-71
2022/06/19 07:04:04;;;;;;;2.33;2.12;;;;;;;22.92;60.77;98746.61;1455522;80;80648;-71
2022/06/19 07:06:06;;;;;;;5.20;2.17;;;;;;;23.02;60.53;98736.26;1433765;81;20993;-71
2022/06/19 07:08:07;;;;;;;2.17;1.92;;;;;;;23.11;60.26;98731.27;1457065;80;20996;-71
2022/06/19 07:10:11;;;;;;;3.62;2.10;;;;;;;23.15;60.05;98729.98;1452159;80;80666;-71
2022/06/19 07:12:12;;;;;;;10.98;1.82;;;;;;;23.23;59.99;98732.71;1451734;80;21072;-70
2022/06/19 07:14:15;;;;;;;3.10;1.92;;;;;;;23.35;59.80;98732.42;1478222;79;20967;-71
2022/06/19 07:16:16;;;;;;;4.15;2.17;;;;;;;23.41;59.61;98733.09;1475645;79;81367;-71
2022/06/19 07:18:18;;;;;;;5.90;1.77;;;;;;;23.48;59.30;98743.54;1479190;79;21028;-70
2022/06/19 07:20:19;;;;;;;4.15;2.40;;;;;;;23.55;59.42;98744.59;1477947;79;21483;-72
2022/06/19 07:22:20;;;;;;;2.98;1.80;;;;;;;23.65;59.23;98736.39;1478872;79;80439;-71
2022/06/19 07:24:21;;;;;;;6.00;2.00;;;;;;;23.76;59.15;98736.55;1480311;79;20989;-72
2022/06/19 07:26:25;;;;;;;8.03;2.37;;;;;;;23.82;59.07;98743.98;1480595;79;21023;-72
2022/06/19 07:28:28;;;;;;;9.38;2.27;;;;;;;23.87;58.90;98740.30;1479685;78;81347;-71
2022/06/19 07:30:29;;;;;;;3.42;2.15;;;;;;;23.94;58.71;98737.31;1479964;79;21549;-71
2022/06/19 07:32:30;;;;;;;4.10;2.05;;;;;;;23.96;58.42;98744.70;1479169;79;20964;-71
2022/06/19 07:34:31;;;;;;;4.75;3.37;;;;;;;24.06;58.52;98742.38;1477308;77;80770;-71
2022/06/19 07:36:33;;;;;;;8.60;2.30;;;;;;;24.15;58.38;98738.69;1479563;79;21305;-71
2022/06/19 07:38:34;;;;;;;2.17;1.95;;;;;;;24.22;58.13;98740.22;1435618;81;20991;-71
2022/06/19 07:40:36;;;;;;;5.12;1.72;;;;;;;24.26;58.07;98734.83;1447346;80;80854;-70
2022/06/19 07:42:37;;;;;;;6.47;2.12;;;;;;;24.30;57.96;98730.27;1431637;81;21078;-72
2022/06/19 07:44:39;;;;;;;5.15;1.92;;;;;;;24.37;57.67;98726.89;1457813;80;21560;-71
2022/06/19 07:50:09;;;;;;;7.83;1.90;;;;;;;24.44;57.62;98727.92;1458391;80;81438;-71
2022/06/19 07:51:04;;;;;;;2.42;2.22;;;;;;;24.58;57.09;98731.27;1431702;81;21018;-71
2022/06/19 07:53:05;;;;;;;2.35;1.92;;;;;;;24.64;56.88;98737.34;1431657;81;80489;-71
2022/06/19 07:55:08;;;;;;;5.80;2.12;;;;;;;24.68;56.80;98738.38;1458112;80;21052;-71
2022/06/19 07:57:09;;;;;;;8.40;2.83;;;;;;;24.72;56.88;98734.33;1431037;81;21744;-71
2022/06/19 07:59:10;;;;;;;2.20;1.70;;;;;;;24.76;56.59;98732.97;1430707;81;21035;-70
2022/06/19 08:01:13;;;;;;;3.92;1.95;;;;;;;24.81;56.59;98730.09;1426775;81;21074;-70
2022/06/19 08:03:14;;;;;;;8.60;2.15;;;;;;;24.87;56.46;98723.16;1452522;80;81610;-70
2022/06/19 08:05:17;;;;;;;2.20;1.98;;;;;;;24.93;56.46;98724.33;1479059;79;21085;-71
2022/06/19 08:07:19;;;;;;;4.08;1.90;;;;;;;24.96;56.44;98715.89;1478070;80;21013;-70
2022/06/19 08:09:20;;;;;;;2.40;1.50;;;;;;;25.03;56.17;98711.48;1477960;79;80818;-71
2022/06/19 08:11:21;;;;;;;9.63;1.90;;;;;;;25.12;55.97;98712.31;1480164;79;20987;-70
2022/06/19 08:13:25;;;;;;;17.92;1.90;;;;;;;25.21;55.98;98707.20;1479089;79;20964;-71
2022/06/19 08:15:26;;;;;;;3.10;1.87;;;;;;;25.30;55.78;98710.20;1477065;79;81751;-71
2022/06/19 08:17:27;;;;;;;5.30;1.92;;;;;;;25.40;55.64;98710.53;1439603;81;21049;-71
2022/06/19 08:19:28;;;;;;;21.30;2.00;;;;;;;25.47;55.49;98712.86;1457629;80;21001;-71
2022/06/19 08:21:30;;;;;;;9.08;1.80;;;;;;;25.56;55.29;98709.11;1452147;80;81167;-71
2022/06/19 08:23:31;;;;;;;7.12;2.05;;;;;;;25.63;55.10;98710.07;1432749;82;21017;-72
2022/06/19 08:25:32;;;;;;;5.65;2.00;;;;;;;25.71;54.72;98710.55;1453436;80;21015;-70
2022/06/19 08:27:37;;;;;;;4.90;1.85;;;;;;;25.77;54.70;98708.47;1479217;79;81491;-70
2022/06/19 08:29:38;;;;;;;2.80;2.15;;;;;;;25.90;54.54;98706.52;1432536;81;21003;-70
2022/06/19 08:31:39;;;;;;;6.95;1.70;;;;;;;26.02;54.53;98704.77;1478578;79;21003;-71
2022/06/19 08:33:40;;;;;;;11.60;2.08;;;;;;;26.13;54.43;98698.45;1478932;78;80622;-71
2022/06/19 08:35:45;;;;;;;8.03;1.92;;;;;;;26.27;54.26;98697.33;1478375;80;20999;-71
2022/06/19 08:37:49;;;;;;;2.62;1.72;;;;;;;26.43;54.02;98694.98;1477263;79;21047;-71
2022/06/19 08:39:50;;;;;;;5.15;1.72;;;;;;;26.61;53.73;98686.03;1476714;79;81600;-71
2022/06/19 08:42:00;;;;;;;2.67;1.40;;;;;;;26.73;53.13;98693.19;1475808;79;20979;-72
2022/06/19 08:44:04;;;;;;;;;;;;;;;26.86;52.88;98689.83;1456495;80;21720;-72
2022/06/19 08:46:25;;;;;;;2.27;1.92;;;;;;;27.01;52.62;98691.19;1475552;79;67843;-72
2022/06/19 08:48:42;;;;;;;3.10;1.80;;;;;;;27.19;52.81;98690.31;1477903;79;21017;-71
2022/06/19 08:50:49;;;;;;;2.15;1.50;;;;;;;27.39;52.47;98693.80;1477525;79;21039;-70
2022/06/19 08:53:12;;;;;;;5.20;1.77;;;;;;;27.53;52.03;98689.39;1479146;79;81851;-71
2022/06/19 08:55:29;;;;;;;3.40;1.77;;;;;;;27.56;52.09;98673.28;1475969;79;21214;-71
2022/06/19 08:57:58;;;;;;;6.08;2.30;;;;;;;27.83;51.84;98691.98;1475935;79;102865;-71
2022/06/19 09:00:06;;;;;;;6.28;1.35;;;;;;;27.97;51.46;98687.03;1478139;79;21054;-71
2022/06/19 09:02:30;;;;;;;2.10;1.90;;;;;;;28.12;51.21;98687.50;1471538;79;21050;-71
2022/06/19 09:07:16;;;;;;;6.67;2.25;;;;;;;28.32;50.70;98685.80;1477642;79;21003;-71
2022/06/19 09:09:27;;;;;;;9.20;2.25;;;;;;;28.39;50.38;98685.03;1470224;79;81552;-71
2022/06/19 09:11:41;;;;;;;2.47;1.57;;;;;;;28.42;50.15;98692.24;1459866;80;21003;-71
2022/06/19 09:14:04;;;;;;;4.83;1.67;;;;;;;28.51;49.92;98697.84;1461910;79;21599;-71
2022/06/19 09:16:24;;;;;;;4.45;1.60;;;;;;;28.63;50.10;98699.52;1457720;79;81476;-70
2022/06/19 09:18:32;;;;;;;4.87;2.20;;;;;;;28.78;49.99;98702.66;1401372;83;20971;-71
2022/06/19 09:20:42;;;;;;;11.48;1.60;;;;;;;28.95;49.87;98701.81;1401097;83;21702;-72
2022/06/19 09:22:49;;;;;;;2.87;1.72;;;;;;;29.03;49.48;98706.55;1382656;84;81493;-72
2022/06/19 09:25:23;;;;;;;6.45;1.77;;;;;;;29.16;49.41;98706.30;1369721;84;21072;-73
2022/06/19 09:27:30;;;;;;;5.03;1.67;;;;;;;29.28;49.21;98694.39;1382431;83;81679;-72
2022/06/19 09:29:35;;;;;;;5.75;1.85;;;;;;;29.34;48.91;98694.42;1385868;84;21095;-71
2022/06/19 09:31:48;;;;;;;6.55;1.70;;;;;;;29.41;48.38;98692.25;1361293;86;21135;-72
2022/06/19 09:34:14;;;;;;;3.42;1.72;;;;;;;29.51;48.50;98692.19;1382925;83;80742;-71
2022/06/19 09:36:19;;;;;;;2.33;1.45;;;;;;;29.64;48.51;98691.38;1387312;84;22044;-71
2022/06/19 09:38:32;;;;;;;4.97;1.62;;;;;;;29.81;47.88;98691.00;1381772;84;21131;-71
2022/06/19 09:40:37;;;;;;;3.12;1.65;;;;;;;29.90;47.89;98691.17;1361589;85;80450;-72
2022/06/19 09:42:50;;;;;;;6.55;1.90;;;;;;;30.00;47.01;98687.52;1383658;84;21070;-73
2022/06/19 09:45:01;;;;;;;6.70;1.72;;;;;;;30.06;47.22;98675.00;1386252;84;21129;-71
2022/06/19 09:47:11;;;;;;;9.70;1.77;;;;;;;30.02;47.12;98644.67;1377041;84;81830;-71
2022/06/19 09:49:21;;;;;;;6.50;1.87;;;;;;;30.31;46.86;98665.69;1378340;84;21137;-72